2FL4 weather

Brady Heliport
Juna Beach, Florida, United States

Public forecast

Using degrees Fahrenheit for public forecast. Weather courtesy of forecast.io.

METAR (pilot weather report)

Closest report is Palm Beach International Airport, 10.4 nm (19.3 km) S. Retrieved 2019/06/26 22:53 UTC (26 minutes ago):

KPBI 262253Z 07012G15KT 10SM SCT036 SCT250 32/24 A3004 RMK AO2 SLP172 T03170239 $

TAF (pilot weather forecast)

Closest forecast is Palm Beach International Airport, 10.4 nm (19.3 km) S. Retrieved 2019/06/26 18:45 UTC (5 hours ago):

TAF KPBI 261741Z 2618/2718 08010KT P6SM VCTS SCT025CB BKN050 FM270100 07006KT P6SM FEW035 FM271400 08008KT P6SM FEW250